sensor_id;sensor_type;location;lat;lon;timestamp;P1;durP1;ratioP1;P2;durP2;ratioP2
10335;SDS011;5213;53.548;9.930;2022-07-06T00:02:20;4.90;;;1.73;;
10335;SDS011;5213;53.548;9.930;2022-07-06T00:04:47;3.90;;;1.80;;
10335;SDS011;5213;53.548;9.930;2022-07-06T00:07:13;3.15;;;1.67;;
10335;SDS011;5213;53.548;9.930;2022-07-06T00:09:39;2.80;;;1.65;;
10335;SDS011;5213;53.548;9.930;2022-07-06T00:12:05;2.95;;;1.80;;
10335;SDS011;5213;53.548;9.930;2022-07-06T00:14:31;2.92;;;1.75;;
10335;SDS011;5213;53.548;9.930;2022-07-06T00:16:57;3.80;;;1.83;;
10335;SDS011;5213;53.548;9.930;2022-07-06T00:19:23;2.92;;;1.75;;
10335;SDS011;5213;53.548;9.930;2022-07-06T00:21:49;2.22;;;1.70;;
10335;SDS011;5213;53.548;9.930;2022-07-06T00:24:15;3.40;;;1.70;;
10335;SDS011;5213;53.548;9.930;2022-07-06T00:26:43;6.82;;;2.08;;
10335;SDS011;5213;53.548;9.930;2022-07-06T00:29:09;3.35;;;1.73;;
10335;SDS011;5213;53.548;9.930;2022-07-06T00:31:35;7.78;;;2.08;;
10335;SDS011;5213;53.548;9.930;2022-07-06T00:34:01;4.30;;;1.77;;
10335;SDS011;5213;53.548;9.930;2022-07-06T00:36:27;5.53;;;2.10;;
10335;SDS011;5213;53.548;9.930;2022-07-06T00:38:53;3.75;;;1.70;;
10335;SDS011;5213;53.548;9.930;2022-07-06T00:41:19;3.80;;;1.67;;
10335;SDS011;5213;53.548;9.930;2022-07-06T00:43:49;3.03;;;1.77;;
10335;SDS011;5213;53.548;9.930;2022-07-06T00:46:16;2.97;;;1.65;;
10335;SDS011;5213;53.548;9.930;2022-07-06T00:48:42;1.95;;;1.58;;
10335;SDS011;5213;53.548;9.930;2022-07-06T00:51:08;4.15;;;1.92;;
10335;SDS011;5213;53.548;9.930;2022-07-06T00:53:34;4.18;;;1.80;;
10335;SDS011;5213;53.548;9.930;2022-07-06T00:56:00;5.10;;;1.67;;
10335;SDS011;5213;53.548;9.930;2022-07-06T00:58:27;4.85;;;2.00;;
10335;SDS011;5213;53.548;9.930;2022-07-06T01:00:53;5.75;;;1.83;;
10335;SDS011;5213;53.548;9.930;2022-07-06T01:03:19;4.85;;;1.88;;
10335;SDS011;5213;53.548;9.930;2022-07-06T01:05:45;5.47;;;2.10;;
10335;SDS011;5213;53.548;9.930;2022-07-06T01:08:11;3.78;;;1.90;;
10335;SDS011;5213;53.548;9.930;2022-07-06T01:10:38;2.45;;;1.60;;
10335;SDS011;5213;53.548;9.930;2022-07-06T01:13:04;5.07;;;2.10;;
10335;SDS011;5213;53.548;9.930;2022-07-06T01:15:30;3.30;;;1.70;;
10335;SDS011;5213;53.548;9.930;2022-07-06T01:17:56;5.20;;;1.98;;
10335;SDS011;5213;53.548;9.930;2022-07-06T01:20:23;4.55;;;2.05;;
10335;SDS011;5213;53.548;9.930;2022-07-06T01:22:51;3.88;;;2.03;;
10335;SDS011;5213;53.548;9.930;2022-07-06T01:25:18;3.30;;;1.70;;
10335;SDS011;5213;53.548;9.930;2022-07-06T01:27:44;2.25;;;1.70;;
10335;SDS011;5213;53.548;9.930;2022-07-06T01:30:12;4.35;;;1.80;;
10335;SDS011;5213;53.548;9.930;2022-07-06T01:32:38;2.53;;;1.80;;
10335;SDS011;5213;53.548;9.930;2022-07-06T01:35:05;3.83;;;1.70;;
10335;SDS011;5213;53.548;9.930;2022-07-06T01:37:32;2.45;;;1.60;;
10335;SDS011;5213;53.548;9.930;2022-07-06T01:39:59;6.40;;;1.85;;
10335;SDS011;5213;53.548;9.930;2022-07-06T01:42:25;3.47;;;2.05;;
10335;SDS011;5213;53.548;9.930;2022-07-06T01:44:51;3.00;;;1.85;;
10335;SDS011;5213;53.548;9.930;2022-07-06T01:47:17;5.22;;;2.10;;
10335;SDS011;5213;53.548;9.930;2022-07-06T01:49:43;4.35;;;1.80;;
10335;SDS011;5213;53.548;9.930;2022-07-06T01:52:09;4.88;;;2.03;;
10335;SDS011;5213;53.548;9.930;2022-07-06T01:54:35;5.78;;;2.10;;
10335;SDS011;5213;53.548;9.930;2022-07-06T01:57:02;6.18;;;2.40;;
10335;SDS011;5213;53.548;9.930;2022-07-06T01:59:28;4.90;;;2.20;;
10335;SDS011;5213;53.548;9.930;2022-07-06T02:01:54;7.85;;;2.25;;
10335;SDS011;5213;53.548;9.930;2022-07-06T02:04:20;5.38;;;2.05;;
10335;SDS011;5213;53.548;9.930;2022-07-06T02:06:46;3.80;;;1.80;;
10335;SDS011;5213;53.548;9.930;2022-07-06T02:09:12;3.13;;;2.10;;
10335;SDS011;5213;53.548;9.930;2022-07-06T02:11:38;4.72;;;2.10;;
10335;SDS011;5213;53.548;9.930;2022-07-06T02:14:04;6.07;;;1.90;;
10335;SDS011;5213;53.548;9.930;2022-07-06T02:16:30;2.63;;;2.00;;
10335;SDS011;5213;53.548;9.930;2022-07-06T02:18:56;6.35;;;2.20;;
10335;SDS011;5213;53.548;9.930;2022-07-06T02:21:22;4.75;;;2.47;;
10335;SDS011;5213;53.548;9.930;2022-07-06T02:23:48;3.70;;;1.77;;
10335;SDS011;5213;53.548;9.930;2022-07-06T02:26:14;3.17;;;1.70;;
10335;SDS011;5213;53.548;9.930;2022-07-06T02:28:40;3.67;;;2.20;;
10335;SDS011;5213;53.548;9.930;2022-07-06T02:31:06;3.05;;;1.85;;
10335;SDS011;5213;53.548;9.930;2022-07-06T02:33:33;3.85;;;2.22;;
10335;SDS011;5213;53.548;9.930;2022-07-06T02:35:59;7.22;;;2.20;;
10335;SDS011;5213;53.548;9.930;2022-07-06T02:38:25;9.73;;;2.35;;
10335;SDS011;5213;53.548;9.930;2022-07-06T02:40:51;3.35;;;2.00;;
10335;SDS011;5213;53.548;9.930;2022-07-06T02:43:17;3.33;;;1.85;;
10335;SDS011;5213;53.548;9.930;2022-07-06T02:45:43;6.38;;;2.10;;
10335;SDS011;5213;53.548;9.930;2022-07-06T02:48:09;2.53;;;2.10;;
10335;SDS011;5213;53.548;9.930;2022-07-06T02:50:35;3.58;;;2.00;;
10335;SDS011;5213;53.548;9.930;2022-07-06T02:53:01;7.10;;;2.33;;
10335;SDS011;5213;53.548;9.930;2022-07-06T02:55:27;3.47;;;1.65;;
10335;SDS011;5213;53.548;9.930;2022-07-06T02:57:53;5.60;;;1.70;;
10335;SDS011;5213;53.548;9.930;2022-07-06T03:00:20;3.17;;;1.80;;
10335;SDS011;5213;53.548;9.930;2022-07-06T03:02:46;3.55;;;1.95;;
10335;SDS011;5213;53.548;9.930;2022-07-06T03:05:12;4.93;;;2.00;;
10335;SDS011;5213;53.548;9.930;2022-07-06T03:07:38;3.58;;;1.83;;
10335;SDS011;5213;53.548;9.930;2022-07-06T03:10:04;5.30;;;2.00;;
10335;SDS011;5213;53.548;9.930;2022-07-06T03:12:30;3.20;;;1.83;;
10335;SDS011;5213;53.548;9.930;2022-07-06T03:14:56;4.18;;;2.10;;
10335;SDS011;5213;53.548;9.930;2022-07-06T03:17:22;6.10;;;2.58;;
10335;SDS011;5213;53.548;9.930;2022-07-06T03:19:48;10.90;;;5.03;;
10335;SDS011;5213;53.548;9.930;2022-07-06T03:22:14;16.33;;;7.82;;
10335;SDS011;5213;53.548;9.930;2022-07-06T03:24:40;16.50;;;8.23;;
10335;SDS011;5213;53.548;9.930;2022-07-06T03:27:06;20.40;;;7.93;;
10335;SDS011;5213;53.548;9.930;2022-07-06T03:29:32;17.27;;;7.30;;
10335;SDS011;5213;53.548;9.930;2022-07-06T03:31:58;14.40;;;6.40;;
10335;SDS011;5213;53.548;9.930;2022-07-06T03:34:24;11.32;;;5.28;;
10335;SDS011;5213;53.548;9.930;2022-07-06T03:36:51;12.13;;;5.38;;
10335;SDS011;5213;53.548;9.930;2022-07-06T03:39:17;7.60;;;4.40;;
10335;SDS011;5213;53.548;9.930;2022-07-06T03:41:43;6.65;;;3.40;;
10335;SDS011;5213;53.548;9.930;2022-07-06T03:44:09;7.55;;;3.60;;
10335;SDS011;5213;53.548;9.930;2022-07-06T03:46:35;6.47;;;3.20;;
10335;SDS011;5213;53.548;9.930;2022-07-06T03:49:01;6.03;;;2.70;;
10335;SDS011;5213;53.548;9.930;2022-07-06T03:51:27;3.42;;;2.25;;
10335;SDS011;5213;53.548;9.930;2022-07-06T03:53:53;5.13;;;2.30;;
10335;SDS011;5213;53.548;9.930;2022-07-06T03:56:19;4.50;;;2.42;;
10335;SDS011;5213;53.548;9.930;2022-07-06T03:59:01;9.30;;;2.28;;
10335;SDS011;5213;53.548;9.930;2022-07-06T04:01:28;3.45;;;2.03;;
10335;SDS011;5213;53.548;9.930;2022-07-06T04:03:55;3.05;;;1.77;;
10335;SDS011;5213;53.548;9.930;2022-07-06T04:06:21;4.82;;;1.73;;
10335;SDS011;5213;53.548;9.930;2022-07-06T04:08:47;3.60;;;2.08;;
10335;SDS011;5213;53.548;9.930;2022-07-06T04:11:13;4.38;;;1.92;;
10335;SDS011;5213;53.548;9.930;2022-07-06T04:13:39;7.28;;;2.17;;
10335;SDS011;5213;53.548;9.930;2022-07-06T04:16:06;5.55;;;1.92;;
10335;SDS011;5213;53.548;9.930;2022-07-06T04:18:32;6.30;;;2.58;;
10335;SDS011;5213;53.548;9.930;2022-07-06T04:20:58;5.22;;;2.00;;
10335;SDS011;5213;53.548;9.930;2022-07-06T04:23:24;3.90;;;1.80;;
10335;SDS011;5213;53.548;9.930;2022-07-06T04:25:51;4.35;;;2.20;;
10335;SDS011;5213;53.548;9.930;2022-07-06T04:28:17;3.83;;;2.15;;
10335;SDS011;5213;53.548;9.930;2022-07-06T04:30:43;7.15;;;2.03;;
10335;SDS011;5213;53.548;9.930;2022-07-06T04:33:09;6.95;;;2.10;;
10335;SDS011;5213;53.548;9.930;2022-07-06T04:35:35;6.43;;;1.98;;
10335;SDS011;5213;53.548;9.930;2022-07-06T04:38:01;4.28;;;1.70;;
10335;SDS011;5213;53.548;9.930;2022-07-06T04:40:27;4.45;;;1.90;;
10335;SDS011;5213;53.548;9.930;2022-07-06T04:42:53;3.90;;;2.10;;
10335;SDS011;5213;53.548;9.930;2022-07-06T04:45:19;4.53;;;1.92;;
10335;SDS011;5213;53.548;9.930;2022-07-06T04:47:45;3.83;;;1.95;;
10335;SDS011;5213;53.548;9.930;2022-07-06T04:50:11;3.38;;;1.70;;
10335;SDS011;5213;53.548;9.930;2022-07-06T04:52:38;4.90;;;1.90;;
10335;SDS011;5213;53.548;9.930;2022-07-06T04:55:04;2.65;;;1.63;;
10335;SDS011;5213;53.548;9.930;2022-07-06T04:57:31;4.57;;;1.85;;
10335;SDS011;5213;53.548;9.930;2022-07-06T04:59:57;3.53;;;1.60;;
10335;SDS011;5213;53.548;9.930;2022-07-06T05:02:23;3.75;;;1.92;;
10335;SDS011;5213;53.548;9.930;2022-07-06T05:04:49;2.85;;;1.70;;
10335;SDS011;5213;53.548;9.930;2022-07-06T05:07:15;4.65;;;1.67;;
10335;SDS011;5213;53.548;9.930;2022-07-06T05:09:41;5.03;;;1.85;;
10335;SDS011;5213;53.548;9.930;2022-07-06T05:12:07;3.45;;;1.77;;
10335;SDS011;5213;53.548;9.930;2022-07-06T05:14:34;3.38;;;1.85;;
10335;SDS011;5213;53.548;9.930;2022-07-06T05:17:01;3.90;;;1.90;;
10335;SDS011;5213;53.548;9.930;2022-07-06T05:19:27;4.07;;;1.77;;
10335;SDS011;5213;53.548;9.930;2022-07-06T05:21:53;5.10;;;2.10;;
10335;SDS011;5213;53.548;9.930;2022-07-06T05:24:19;3.60;;;1.88;;
10335;SDS011;5213;53.548;9.930;2022-07-06T05:26:46;3.55;;;1.73;;
10335;SDS011;5213;53.548;9.930;2022-07-06T05:29:12;5.50;;;2.00;;
10335;SDS011;5213;53.548;9.930;2022-07-06T05:31:38;5.65;;;2.10;;
10335;SDS011;5213;53.548;9.930;2022-07-06T05:34:04;4.38;;;1.65;;
10335;SDS011;5213;53.548;9.930;2022-07-06T05:36:30;4.70;;;1.90;;
10335;SDS011;5213;53.548;9.930;2022-07-06T05:38:56;7.38;;;1.80;;
10335;SDS011;5213;53.548;9.930;2022-07-06T05:41:22;4.53;;;1.70;;
10335;SDS011;5213;53.548;9.930;2022-07-06T05:43:48;3.85;;;1.48;;
10335;SDS011;5213;53.548;9.930;2022-07-06T05:46:14;4.45;;;1.75;;
10335;SDS011;5213;53.548;9.930;2022-07-06T05:48:40;3.60;;;1.75;;
10335;SDS011;5213;53.548;9.930;2022-07-06T05:51:25;6.35;;;1.80;;
10335;SDS011;5213;53.548;9.930;2022-07-06T05:53:51;2.05;;;1.50;;
10335;SDS011;5213;53.548;9.930;2022-07-06T05:56:17;6.07;;;1.83;;
10335;SDS011;5213;53.548;9.930;2022-07-06T05:58:43;2.15;;;1.45;;
10335;SDS011;5213;53.548;9.930;2022-07-06T06:01:09;4.93;;;1.90;;
10335;SDS011;5213;53.548;9.930;2022-07-06T06:03:35;4.53;;;1.63;;
10335;SDS011;5213;53.548;9.930;2022-07-06T06:06:01;3.85;;;1.83;;
10335;SDS011;5213;53.548;9.930;2022-07-06T06:08:28;4.25;;;1.83;;
10335;SDS011;5213;53.548;9.930;2022-07-06T06:10:54;4.53;;;1.90;;
10335;SDS011;5213;53.548;9.930;2022-07-06T06:13:20;4.38;;;1.50;;
10335;SDS011;5213;53.548;9.930;2022-07-06T06:15:46;3.92;;;1.75;;
10335;SDS011;5213;53.548;9.930;2022-07-06T06:18:12;4.00;;;1.50;;
10335;SDS011;5213;53.548;9.930;2022-07-06T06:20:41;4.68;;;1.42;;
10335;SDS011;5213;53.548;9.930;2022-07-06T06:23:07;5.07;;;1.60;;
10335;SDS011;5213;53.548;9.930;2022-07-06T06:25:34;5.65;;;1.30;;
10335;SDS011;5213;53.548;9.930;2022-07-06T06:28:01;3.00;;;1.27;;
10335;SDS011;5213;53.548;9.930;2022-07-06T06:30:28;5.35;;;1.20;;
10335;SDS011;5213;53.548;9.930;2022-07-06T06:35:50;1.80;;;1.10;;
10335;SDS011;5213;53.548;9.930;2022-07-06T06:38:17;2.50;;;1.17;;
10335;SDS011;5213;53.548;9.930;2022-07-06T06:40:44;2.10;;;1.20;;
10335;SDS011;5213;53.548;9.930;2022-07-06T06:43:10;3.95;;;1.30;;
10335;SDS011;5213;53.548;9.930;2022-07-06T06:45:36;1.83;;;1.15;;
10335;SDS011;5213;53.548;9.930;2022-07-06T06:48:02;2.47;;;1.20;;
10335;SDS011;5213;53.548;9.930;2022-07-06T06:50:28;2.00;;;1.20;;
10335;SDS011;5213;53.548;9.930;2022-07-06T06:52:54;3.25;;;1.20;;
10335;SDS011;5213;53.548;9.930;2022-07-06T06:55:20;3.15;;;1.30;;
10335;SDS011;5213;53.548;9.930;2022-07-06T06:57:47;2.92;;;1.20;;
10335;SDS011;5213;53.548;9.930;2022-07-06T07:00:13;3.95;;;1.30;;
10335;SDS011;5213;53.548;9.930;2022-07-06T07:02:39;5.40;;;1.60;;
10335;SDS011;5213;53.548;9.930;2022-07-06T07:05:05;3.13;;;1.30;;
10335;SDS011;5213;53.548;9.930;2022-07-06T07:07:32;2.17;;;1.20;;
10335;SDS011;5213;53.548;9.930;2022-07-06T07:09:58;5.03;;;1.45;;
10335;SDS011;5213;53.548;9.930;2022-07-06T07:12:24;3.85;;;1.60;;
10335;SDS011;5213;53.548;9.930;2022-07-06T07:14:50;3.30;;;1.25;;
10335;SDS011;5213;53.548;9.930;2022-07-06T07:17:16;4.80;;;2.20;;
10335;SDS011;5213;53.548;9.930;2022-07-06T07:19:42;3.75;;;1.65;;
10335;SDS011;5213;53.548;9.930;2022-07-06T07:22:08;2.70;;;1.30;;
10335;SDS011;5213;53.548;9.930;2022-07-06T07:24:34;3.60;;;1.45;;
10335;SDS011;5213;53.548;9.930;2022-07-06T07:27:00;3.03;;;1.13;;
10335;SDS011;5213;53.548;9.930;2022-07-06T07:29:27;3.22;;;1.35;;
10335;SDS011;5213;53.548;9.930;2022-07-06T07:31:53;2.90;;;1.48;;
10335;SDS011;5213;53.548;9.930;2022-07-06T07:34:19;3.30;;;1.75;;
10335;SDS011;5213;53.548;9.930;2022-07-06T07:36:45;2.80;;;1.40;;
10335;SDS011;5213;53.548;9.930;2022-07-06T07:39:11;3.75;;;1.58;;
10335;SDS011;5213;53.548;9.930;2022-07-06T07:41:37;5.55;;;1.90;;
10335;SDS011;5213;53.548;9.930;2022-07-06T07:44:03;3.80;;;1.58;;
10335;SDS011;5213;53.548;9.930;2022-07-06T07:46:29;6.32;;;1.75;;
10335;SDS011;5213;53.548;9.930;2022-07-06T07:48:55;4.53;;;1.60;;
10335;SDS011;5213;53.548;9.930;2022-07-06T07:51:21;6.38;;;1.60;;
10335;SDS011;5213;53.548;9.930;2022-07-06T07:53:47;4.75;;;2.00;;
10335;SDS011;5213;53.548;9.930;2022-07-06T07:56:13;4.93;;;1.65;;
10335;SDS011;5213;53.548;9.930;2022-07-06T07:58:39;4.95;;;1.67;;
10335;SDS011;5213;53.548;9.930;2022-07-06T08:01:05;4.10;;;1.63;;
10335;SDS011;5213;53.548;9.930;2022-07-06T08:03:31;2.30;;;1.35;;
10335;SDS011;5213;53.548;9.930;2022-07-06T08:05:58;1.15;;;1.10;;
10335;SDS011;5213;53.548;9.930;2022-07-06T08:08:24;1.58;;;1.48;;
10335;SDS011;5213;53.548;9.930;2022-07-06T08:10:50;1.67;;;1.17;;
10335;SDS011;5213;53.548;9.930;2022-07-06T08:13:16;3.05;;;1.00;;
10335;SDS011;5213;53.548;9.930;2022-07-06T08:15:42;2.63;;;1.30;;
10335;SDS011;5213;53.548;9.930;2022-07-06T08:18:08;1.35;;;0.95;;
10335;SDS011;5213;53.548;9.930;2022-07-06T08:20:35;1.45;;;1.00;;
10335;SDS011;5213;53.548;9.930;2022-07-06T08:23:01;3.35;;;1.20;;
10335;SDS011;5213;53.548;9.930;2022-07-06T08:25:27;3.88;;;1.60;;
10335;SDS011;5213;53.548;9.930;2022-07-06T08:27:53;2.45;;;1.05;;
10335;SDS011;5213;53.548;9.930;2022-07-06T08:30:19;3.15;;;1.80;;
10335;SDS011;5213;53.548;9.930;2022-07-06T08:32:45;1.88;;;1.50;;
10335;SDS011;5213;53.548;9.930;2022-07-06T08:35:11;5.90;;;1.30;;
10335;SDS011;5213;53.548;9.930;2022-07-06T08:37:38;2.17;;;1.50;;
10335;SDS011;5213;53.548;9.930;2022-07-06T08:40:04;2.92;;;1.20;;
10335;SDS011;5213;53.548;9.930;2022-07-06T08:42:33;3.42;;;1.80;;
10335;SDS011;5213;53.548;9.930;2022-07-06T08:45:00;1.35;;;1.00;;
10335;SDS011;5213;53.548;9.930;2022-07-06T08:47:27;4.68;;;1.20;;
10335;SDS011;5213;53.548;9.930;2022-07-06T08:49:54;3.38;;;1.20;;
10335;SDS011;5213;53.548;9.930;2022-07-06T08:52:20;1.10;;;1.00;;
10335;SDS011;5213;53.548;9.930;2022-07-06T08:54:47;2.53;;;1.20;;
10335;SDS011;5213;53.548;9.930;2022-07-06T08:57:13;1.55;;;0.98;;
10335;SDS011;5213;53.548;9.930;2022-07-06T08:59:40;1.75;;;1.10;;
10335;SDS011;5213;53.548;9.930;2022-07-06T09:02:06;1.98;;;1.20;;
10335;SDS011;5213;53.548;9.930;2022-07-06T09:04:32;1.65;;;0.80;;
10335;SDS011;5213;53.548;9.930;2022-07-06T09:06:59;1.25;;;1.10;;
10335;SDS011;5213;53.548;9.930;2022-07-06T09:09:25;1.55;;;1.15;;
10335;SDS011;5213;53.548;9.930;2022-07-06T09:11:51;1.42;;;1.10;;
10335;SDS011;5213;53.548;9.930;2022-07-06T09:14:18;4.05;;;1.23;;
10335;SDS011;5213;53.548;9.930;2022-07-06T09:16:44;1.23;;;1.10;;
10335;SDS011;5213;53.548;9.930;2022-07-06T09:19:12;1.48;;;1.20;;
10335;SDS011;5213;53.548;9.930;2022-07-06T09:21:38;1.95;;;1.35;;
10335;SDS011;5213;53.548;9.930;2022-07-06T09:24:10;2.75;;;1.23;;
10335;SDS011;5213;53.548;9.930;2022-07-06T09:26:37;2.25;;;1.30;;
10335;SDS011;5213;53.548;9.930;2022-07-06T09:29:03;4.18;;;1.20;;
10335;SDS011;5213;53.548;9.930;2022-07-06T09:31:30;1.80;;;1.33;;
10335;SDS011;5213;53.548;9.930;2022-07-06T09:33:57;2.05;;;1.30;;
10335;SDS011;5213;53.548;9.930;2022-07-06T09:36:44;2.42;;;1.20;;
10335;SDS011;5213;53.548;9.930;2022-07-06T09:41:46;2.42;;;1.48;;
10335;SDS011;5213;53.548;9.930;2022-07-06T09:44:13;3.22;;;1.30;;
10335;SDS011;5213;53.548;9.930;2022-07-06T09:46:45;2.10;;;1.10;;
10335;SDS011;5213;53.548;9.930;2022-07-06T09:49:11;2.47;;;1.17;;
10335;SDS011;5213;53.548;9.930;2022-07-06T09:51:38;1.95;;;1.27;;
10335;SDS011;5213;53.548;9.930;2022-07-06T09:54:08;2.60;;;1.10;;
10335;SDS011;5213;53.548;9.930;2022-07-06T09:56:40;2.75;;;1.25;;
10335;SDS011;5213;53.548;9.930;2022-07-06T09:59:10;3.97;;;1.27;;
10335;SDS011;5213;53.548;9.930;2022-07-06T10:01:37;2.20;;;1.10;;
10335;SDS011;5213;53.548;9.930;2022-07-06T10:04:03;1.50;;;1.02;;
10335;SDS011;5213;53.548;9.930;2022-07-06T10:06:29;1.52;;;1.05;;
10335;SDS011;5213;53.548;9.930;2022-07-06T10:08:55;3.08;;;1.23;;
10335;SDS011;5213;53.548;9.930;2022-07-06T10:11:23;1.35;;;1.20;;
10335;SDS011;5213;53.548;9.930;2022-07-06T10:13:50;1.98;;;1.27;;
10335;SDS011;5213;53.548;9.930;2022-07-06T10:16:20;1.92;;;1.10;;
10335;SDS011;5213;53.548;9.930;2022-07-06T10:18:47;3.05;;;1.02;;
10335;SDS011;5213;53.548;9.930;2022-07-06T10:21:15;1.45;;;0.88;;
10335;SDS011;5213;53.548;9.930;2022-07-06T10:23:41;1.33;;;0.85;;
10335;SDS011;5213;53.548;9.930;2022-07-06T10:26:07;3.03;;;1.13;;
10335;SDS011;5213;53.548;9.930;2022-07-06T10:28:33;1.80;;;1.30;;
10335;SDS011;5213;53.548;9.930;2022-07-06T10:30:59;1.42;;;1.33;;
10335;SDS011;5213;53.548;9.930;2022-07-06T10:33:26;1.65;;;1.27;;
10335;SDS011;5213;53.548;9.930;2022-07-06T10:35:52;2.63;;;1.52;;
10335;SDS011;5213;53.548;9.930;2022-07-06T10:38:20;3.35;;;1.48;;
10335;SDS011;5213;53.548;9.930;2022-07-06T10:40:58;4.20;;;1.58;;
10335;SDS011;5213;53.548;9.930;2022-07-06T10:43:52;4.28;;;1.63;;
10335;SDS011;5213;53.548;9.930;2022-07-06T10:46:17;3.72;;;1.77;;
10335;SDS011;5213;53.548;9.930;2022-07-06T10:48:47;3.70;;;1.40;;
10335;SDS011;5213;53.548;9.930;2022-07-06T10:51:27;2.40;;;1.20;;
10335;SDS011;5213;53.548;9.930;2022-07-06T10:53:57;5.13;;;1.50;;
10335;SDS011;5213;53.548;9.930;2022-07-06T10:57:05;2.45;;;1.48;;
10335;SDS011;5213;53.548;9.930;2022-07-06T10:59:21;1.83;;;1.33;;
10335;SDS011;5213;53.548;9.930;2022-07-06T11:04:32;2.97;;;1.42;;
10335;SDS011;5213;53.548;9.930;2022-07-06T11:07:06;1.40;;;1.15;;
10335;SDS011;5213;53.548;9.930;2022-07-06T11:09:33;3.08;;;1.17;;
10335;SDS011;5213;53.548;9.930;2022-07-06T11:12:11;2.60;;;1.10;;
10335;SDS011;5213;53.548;9.930;2022-07-06T11:14:37;2.55;;;1.45;;
10335;SDS011;5213;53.548;9.930;2022-07-06T11:17:04;1.10;;;0.90;;
10335;SDS011;5213;53.548;9.930;2022-07-06T11:19:35;3.25;;;1.17;;
10335;SDS011;5213;53.548;9.930;2022-07-06T11:24:34;2.47;;;1.00;;
10335;SDS011;5213;53.548;9.930;2022-07-06T11:27:01;5.00;;;1.10;;
10335;SDS011;5213;53.548;9.930;2022-07-06T11:29:27;4.00;;;1.25;;
10335;SDS011;5213;53.548;9.930;2022-07-06T11:31:55;4.50;;;1.10;;
10335;SDS011;5213;53.548;9.930;2022-07-06T11:34:26;2.40;;;0.93;;
10335;SDS011;5213;53.548;9.930;2022-07-06T11:36:56;2.75;;;1.15;;
10335;SDS011;5213;53.548;9.930;2022-07-06T11:39:22;2.20;;;1.08;;
10335;SDS011;5213;53.548;9.930;2022-07-06T11:41:48;2.88;;;0.93;;
10335;SDS011;5213;53.548;9.930;2022-07-06T11:44:14;4.50;;;1.00;;
10335;SDS011;5213;53.548;9.930;2022-07-06T11:46:40;3.08;;;0.82;;
10335;SDS011;5213;53.548;9.930;2022-07-06T11:49:07;2.75;;;1.10;;
10335;SDS011;5213;53.548;9.930;2022-07-06T11:51:34;3.15;;;1.13;;
10335;SDS011;5213;53.548;9.930;2022-07-06T11:54:06;3.08;;;0.98;;
10335;SDS011;5213;53.548;9.930;2022-07-06T11:56:33;2.35;;;1.00;;
10335;SDS011;5213;53.548;9.930;2022-07-06T11:59:00;2.80;;;0.80;;
10335;SDS011;5213;53.548;9.930;2022-07-06T12:01:27;2.63;;;1.00;;
10335;SDS011;5213;53.548;9.930;2022-07-06T12:03:57;2.72;;;0.95;;
10335;SDS011;5213;53.548;9.930;2022-07-06T12:06:24;3.15;;;0.90;;
10335;SDS011;5213;53.548;9.930;2022-07-06T12:08:51;2.47;;;1.00;;
10335;SDS011;5213;53.548;9.930;2022-07-06T12:13:53;1.52;;;0.70;;
10335;SDS011;5213;53.548;9.930;2022-07-06T12:16:20;2.03;;;0.90;;
10335;SDS011;5213;53.548;9.930;2022-07-06T12:18:48;2.85;;;1.13;;
10335;SDS011;5213;53.548;9.930;2022-07-06T12:21:16;2.30;;;0.70;;
10335;SDS011;5213;53.548;9.930;2022-07-06T12:23:43;4.10;;;1.02;;
10335;SDS011;5213;53.548;9.930;2022-07-06T12:26:11;3.25;;;1.10;;
10335;SDS011;5213;53.548;9.930;2022-07-06T12:28:37;1.67;;;0.98;;
10335;SDS011;5213;53.548;9.930;2022-07-06T12:31:03;1.13;;;0.70;;
10335;SDS011;5213;53.548;9.930;2022-07-06T12:33:29;1.23;;;0.77;;
10335;SDS011;5213;53.548;9.930;2022-07-06T12:35:56;2.97;;;1.20;;
10335;SDS011;5213;53.548;9.930;2022-07-06T12:38:26;1.65;;;0.80;;
10335;SDS011;5213;53.548;9.930;2022-07-06T12:40:52;2.08;;;0.90;;
10335;SDS011;5213;53.548;9.930;2022-07-06T12:43:38;2.17;;;0.70;;
10335;SDS011;5213;53.548;9.930;2022-07-06T12:48:55;1.33;;;0.70;;
10335;SDS011;5213;53.548;9.930;2022-07-06T12:51:21;1.38;;;0.63;;
10335;SDS011;5213;53.548;9.930;2022-07-06T12:53:47;1.58;;;0.88;;
10335;SDS011;5213;53.548;9.930;2022-07-06T12:56:14;1.48;;;0.80;;
10335;SDS011;5213;53.548;9.930;2022-07-06T12:58:56;0.90;;;0.55;;
10335;SDS011;5213;53.548;9.930;2022-07-06T13:01:23;2.25;;;1.10;;
10335;SDS011;5213;53.548;9.930;2022-07-06T13:03:53;1.48;;;0.80;;
10335;SDS011;5213;53.548;9.930;2022-07-06T13:06:29;1.77;;;0.57;;
10335;SDS011;5213;53.548;9.930;2022-07-06T13:08:56;3.95;;;0.90;;
10335;SDS011;5213;53.548;9.930;2022-07-06T13:11:22;1.58;;;0.70;;
10335;SDS011;5213;53.548;9.930;2022-07-06T13:13:48;2.15;;;0.60;;
10335;SDS011;5213;53.548;9.930;2022-07-06T13:16:14;1.77;;;0.60;;
10335;SDS011;5213;53.548;9.930;2022-07-06T13:18:41;1.40;;;0.70;;
10335;SDS011;5213;53.548;9.930;2022-07-06T13:21:07;1.75;;;0.63;;
10335;SDS011;5213;53.548;9.930;2022-07-06T13:23:33;1.25;;;0.60;;
10335;SDS011;5213;53.548;9.930;2022-07-06T13:25:59;0.75;;;0.65;;
10335;SDS011;5213;53.548;9.930;2022-07-06T13:28:25;2.03;;;0.93;;
10335;SDS011;5213;53.548;9.930;2022-07-06T13:30:51;1.50;;;0.65;;
10335;SDS011;5213;53.548;9.930;2022-07-06T13:33:18;2.05;;;0.82;;
10335;SDS011;5213;53.548;9.930;2022-07-06T13:35:44;1.80;;;0.82;;
10335;SDS011;5213;53.548;9.930;2022-07-06T13:38:10;0.70;;;0.68;;
10335;SDS011;5213;53.548;9.930;2022-07-06T13:40:36;2.65;;;0.90;;
10335;SDS011;5213;53.548;9.930;2022-07-06T13:43:03;1.90;;;0.82;;
10335;SDS011;5213;53.548;9.930;2022-07-06T13:45:29;1.70;;;0.70;;
10335;SDS011;5213;53.548;9.930;2022-07-06T13:47:55;1.92;;;1.00;;
10335;SDS011;5213;53.548;9.930;2022-07-06T13:50:21;2.55;;;0.77;;
10335;SDS011;5213;53.548;9.930;2022-07-06T13:52:47;1.80;;;0.85;;
10335;SDS011;5213;53.548;9.930;2022-07-06T13:55:13;1.75;;;0.60;;
10335;SDS011;5213;53.548;9.930;2022-07-06T13:57:39;1.70;;;0.80;;
10335;SDS011;5213;53.548;9.930;2022-07-06T14:00:07;3.20;;;0.90;;
10335;SDS011;5213;53.548;9.930;2022-07-06T14:02:33;0.80;;;0.60;;
10335;SDS011;5213;53.548;9.930;2022-07-06T14:04:59;1.33;;;0.52;;
10335;SDS011;5213;53.548;9.930;2022-07-06T14:07:25;2.60;;;0.88;;
10335;SDS011;5213;53.548;9.930;2022-07-06T14:09:52;0.60;;;0.60;;
10335;SDS011;5213;53.548;9.930;2022-07-06T14:12:18;1.10;;;0.70;;
10335;SDS011;5213;53.548;9.930;2022-07-06T14:14:44;2.13;;;0.80;;
10335;SDS011;5213;53.548;9.930;2022-07-06T14:17:10;1.55;;;0.70;;
10335;SDS011;5213;53.548;9.930;2022-07-06T14:19:37;0.77;;;0.52;;
10335;SDS011;5213;53.548;9.930;2022-07-06T14:22:03;1.73;;;0.77;;
10335;SDS011;5213;53.548;9.930;2022-07-06T14:24:29;0.73;;;0.73;;
10335;SDS011;5213;53.548;9.930;2022-07-06T14:26:56;3.47;;;3.08;;
10335;SDS011;5213;53.548;9.930;2022-07-06T14:29:22;0.60;;;0.45;;
10335;SDS011;5213;53.548;9.930;2022-07-06T14:31:48;2.45;;;0.70;;
10335;SDS011;5213;53.548;9.930;2022-07-06T14:34:14;0.90;;;0.70;;
10335;SDS011;5213;53.548;9.930;2022-07-06T14:36:40;1.27;;;0.60;;
10335;SDS011;5213;53.548;9.930;2022-07-06T14:39:06;1.63;;;1.02;;
10335;SDS011;5213;53.548;9.930;2022-07-06T14:41:32;2.63;;;0.95;;
10335;SDS011;5213;53.548;9.930;2022-07-06T14:44:00;1.38;;;0.70;;
10335;SDS011;5213;53.548;9.930;2022-07-06T14:46:26;3.83;;;0.80;;
10335;SDS011;5213;53.548;9.930;2022-07-06T14:48:52;4.82;;;0.80;;
10335;SDS011;5213;53.548;9.930;2022-07-06T14:51:18;2.17;;;1.00;;
10335;SDS011;5213;53.548;9.930;2022-07-06T14:53:44;1.65;;;0.60;;
10335;SDS011;5213;53.548;9.930;2022-07-06T14:56:10;2.95;;;0.73;;
10335;SDS011;5213;53.548;9.930;2022-07-06T14:58:36;2.22;;;0.95;;
10335;SDS011;5213;53.548;9.930;2022-07-06T15:01:03;1.50;;;0.77;;
10335;SDS011;5213;53.548;9.930;2022-07-06T15:03:29;1.02;;;0.63;;
10335;SDS011;5213;53.548;9.930;2022-07-06T15:05:55;0.68;;;0.60;;
10335;SDS011;5213;53.548;9.930;2022-07-06T15:08:21;2.85;;;0.80;;
10335;SDS011;5213;53.548;9.930;2022-07-06T15:10:47;0.85;;;0.85;;
10335;SDS011;5213;53.548;9.930;2022-07-06T15:13:13;1.00;;;0.70;;
10335;SDS011;5213;53.548;9.930;2022-07-06T15:15:40;2.58;;;1.15;;